createdAt,value
2022-08-18T00:01:14.782Z,99089.28
2022-08-18T00:03:55.531Z,99084.41
2022-08-18T00:06:28.339Z,99086.16
2022-08-18T00:08:58.051Z,99088.00
2022-08-18T00:11:27.741Z,99061.25
2022-08-18T00:13:55.850Z,99080.78
2022-08-18T00:16:23.732Z,99089.28
2022-08-18T00:18:51.659Z,99078.06
2022-08-18T00:21:20.139Z,99074.97
2022-08-18T00:23:48.046Z,99071.28
2022-08-18T00:26:16.024Z,99079.84
2022-08-18T00:28:45.369Z,99086.50
2022-08-18T00:31:13.242Z,99083.16
2022-08-18T00:33:41.174Z,99087.09
2022-08-18T00:36:09.186Z,99088.97
2022-08-18T00:38:37.074Z,99085.69
2022-08-18T00:41:05.804Z,99092.81
2022-08-18T00:43:44.005Z,99088.25
2022-08-18T00:46:18.019Z,99094.31
2022-08-18T00:48:48.303Z,99095.44
2022-08-18T00:51:19.924Z,99096.47
2022-08-18T00:53:51.467Z,99098.19
2022-08-18T00:56:24.824Z,99094.00
2022-08-18T00:58:56.929Z,99109.53
2022-08-18T01:01:30.208Z,99097.91
2022-08-18T01:04:03.807Z,99112.94
2022-08-18T01:06:39.288Z,99120.53
2022-08-18T01:09:08.377Z,99122.66
2022-08-18T01:11:38.221Z,99126.13
2022-08-18T01:14:08.721Z,99130.06
2022-08-18T01:16:57.662Z,99135.16
2022-08-18T01:19:45.131Z,99139.00
2022-08-18T01:22:20.694Z,99136.34
2022-08-18T01:25:09.851Z,99103.88
2022-08-18T01:27:39.270Z,99137.28
2022-08-18T01:30:10.431Z,99128.16
2022-08-18T01:32:39.986Z,99140.16
2022-08-18T01:35:11.191Z,99130.28
2022-08-18T01:37:41.298Z,99131.72
2022-08-18T01:41:20.988Z,99126.53
2022-08-18T01:43:05.093Z,99128.91
2022-08-18T01:45:33.493Z,99121.22
2022-08-18T01:48:04.567Z,99122.91
2022-08-18T01:50:34.173Z,99112.88
2022-08-18T01:53:03.960Z,99110.72
2022-08-18T01:55:33.439Z,99112.38
2022-08-18T01:58:01.774Z,99109.81
2022-08-18T02:00:32.246Z,99114.94
2022-08-18T02:03:02.811Z,99123.28
2022-08-18T02:05:35.737Z,99114.38
2022-08-18T02:08:04.873Z,99125.97
2022-08-18T02:10:34.825Z,99127.84
2022-08-18T02:13:03.233Z,99128.59
2022-08-18T02:15:31.255Z,99125.19
2022-08-18T02:17:59.319Z,99131.59
2022-08-18T02:20:27.265Z,99127.63
2022-08-18T02:22:55.296Z,99122.69
2022-08-18T02:25:23.505Z,99127.91
2022-08-18T02:27:53.318Z,99130.50
2022-08-18T02:30:22.020Z,99116.81
2022-08-18T02:32:50.551Z,99124.66
2022-08-18T02:35:19.215Z,99130.00
2022-08-18T02:37:48.366Z,99124.66
2022-08-18T02:40:19.068Z,99130.00
2022-08-18T02:42:48.200Z,99126.31
2022-08-18T02:45:17.505Z,99124.50
2022-08-18T02:47:45.930Z,99126.41
2022-08-18T02:50:16.556Z,99133.19
2022-08-18T02:52:44.508Z,99134.25
2022-08-18T02:55:12.607Z,99132.53
2022-08-18T02:57:43.412Z,99130.25
2022-08-18T03:00:13.622Z,99122.16
2022-08-18T03:02:47.124Z,99137.19
2022-08-18T03:05:15.414Z,99129.47
2022-08-18T03:07:43.565Z,99133.19
2022-08-18T03:10:33.131Z,99128.91
2022-08-18T03:12:59.962Z,99130.53
2022-08-18T03:15:27.866Z,99137.22
2022-08-18T03:17:58.229Z,99131.00
2022-08-18T03:20:30.458Z,99129.22
2022-08-18T03:22:59.831Z,99130.63
2022-08-18T03:25:33.641Z,99146.63
2022-08-18T03:28:03.641Z,99144.09
2022-08-18T03:30:31.630Z,99137.06
2022-08-18T03:33:00.935Z,99139.63
2022-08-18T03:35:30.042Z,99144.63
2022-08-18T03:37:59.744Z,99139.56
2022-08-18T03:40:27.973Z,99138.44
2022-08-18T03:42:56.432Z,99137.09
2022-08-18T03:45:27.501Z,99141.88
2022-08-18T03:47:55.823Z,99135.69
2022-08-18T03:50:25.616Z,99141.53
2022-08-18T03:52:54.263Z,99133.81
2022-08-18T03:55:22.559Z,99129.66
2022-08-18T03:57:53.116Z,99128.81
2022-08-18T04:00:21.894Z,99119.78
2022-08-18T04:02:49.921Z,99122.50
2022-08-18T04:05:18.099Z,99125.47
2022-08-18T04:07:47.458Z,99126.09
2022-08-18T04:10:19.335Z,99135.50
2022-08-18T04:12:48.141Z,99127.97
2022-08-18T04:15:16.828Z,99128.97
2022-08-18T04:18:03.208Z,99111.09
2022-08-18T04:20:33.143Z,99125.47
2022-08-18T04:23:03.169Z,99126.56
2022-08-18T04:25:33.411Z,99130.19
2022-08-18T04:28:03.424Z,99136.28
2022-08-18T04:30:31.792Z,99130.19
2022-08-18T04:33:01.916Z,99133.53
2022-08-18T04:35:29.933Z,99139.56
2022-08-18T04:37:57.822Z,99139.69
2022-08-18T04:40:27.952Z,99140.75
2022-08-18T04:42:56.197Z,99134.91
2022-08-18T04:45:24.078Z,99138.25
2022-08-18T04:47:53.305Z,99137.84
2022-08-18T04:50:21.425Z,99135.75
2022-08-18T04:53:18.104Z,99140.81
2022-08-18T04:55:49.744Z,99141.31
2022-08-18T04:58:18.723Z,99144.41
2022-08-18T05:00:46.852Z,99130.53
2022-08-18T05:03:15.215Z,99127.84
2022-08-18T05:05:43.094Z,99132.88
2022-08-18T05:08:11.049Z,99126.28
2022-08-18T05:10:40.348Z,99132.22
2022-08-18T05:13:09.798Z,99133.53
2022-08-18T05:15:59.426Z,99126.44
2022-08-18T05:18:26.743Z,99131.28
2022-08-18T05:20:56.331Z,99121.72
2022-08-18T05:23:25.265Z,99130.03
2022-08-18T05:25:58.556Z,99113.97
2022-08-18T05:28:27.902Z,99127.00
2022-08-18T05:30:56.752Z,99128.63
2022-08-18T05:33:28.577Z,99130.94
2022-08-18T05:36:04.529Z,99134.56
2022-08-18T05:38:43.484Z,99132.66
2022-08-18T05:41:14.729Z,99136.78
2022-08-18T05:43:51.843Z,99129.44
2022-08-18T05:46:22.927Z,99138.66
2022-08-18T05:48:51.558Z,99146.22
2022-08-18T05:51:35.804Z,99146.22
2022-08-18T05:54:23.716Z,99144.44
2022-08-18T05:56:54.289Z,99140.84
2022-08-18T05:59:28.571Z,99146.59
2022-08-18T06:02:05.492Z,99132.00
2022-08-18T06:04:43.526Z,99138.41
2022-08-18T06:07:15.253Z,99136.19
2022-08-18T06:09:47.904Z,99142.34
2022-08-18T06:12:33.456Z,99142.69
2022-08-18T06:15:14.713Z,99129.91
2022-08-18T06:18:07.414Z,99148.09
2022-08-18T06:20:42.041Z,99146.88
2022-08-18T06:23:27.970Z,99149.25
2022-08-18T06:26:09.076Z,99142.59
2022-08-18T06:28:46.530Z,99140.66
2022-08-18T06:31:25.960Z,99140.25
2022-08-18T06:34:05.929Z,99148.56
2022-08-18T06:36:43.821Z,99160.19
2022-08-18T06:39:21.105Z,99156.66
2022-08-18T06:41:51.097Z,99170.25
2022-08-18T06:44:29.179Z,99171.84
2022-08-18T06:47:04.673Z,99159.94
2022-08-18T06:49:41.086Z,99156.59
2022-08-18T06:52:23.812Z,99152.88
2022-08-18T06:54:52.520Z,99146.84
2022-08-18T06:57:27.944Z,99146.22
2022-08-18T07:00:00.006Z,99149.38
2022-08-18T07:02:44.014Z,99152.53
2022-08-18T07:05:20.524Z,99146.25
2022-08-18T07:08:06.194Z,99151.94
2022-08-18T07:10:36.329Z,99144.91
2022-08-18T07:13:18.883Z,99147.19
2022-08-18T07:15:48.389Z,99131.50
2022-08-18T07:18:26.603Z,99113.56
2022-08-18T07:20:57.792Z,99131.06
2022-08-18T07:23:33.863Z,99129.13
2022-08-18T07:26:08.580Z,99131.41
2022-08-18T07:28:41.611Z,99124.28
2022-08-18T07:31:19.392Z,99131.44
2022-08-18T07:33:56.597Z,99142.97
2022-08-18T07:36:29.202Z,99146.22
2022-08-18T07:39:02.914Z,99150.91
2022-08-18T07:41:37.745Z,99162.69
2022-08-18T07:44:16.508Z,99144.47
2022-08-18T07:46:51.622Z,99150.75
2022-08-18T07:49:23.942Z,99166.59
2022-08-18T07:51:57.948Z,99164.66
2022-08-18T07:54:49.248Z,99172.97
2022-08-18T07:57:26.045Z,99169.16
2022-08-18T08:00:01.593Z,99179.91
2022-08-18T08:02:54.866Z,99177.81
2022-08-18T08:05:40.047Z,99179.84
2022-08-18T08:08:17.733Z,99175.31
2022-08-18T08:11:01.572Z,99178.44
2022-08-18T08:13:54.755Z,99185.09
2022-08-18T08:16:36.360Z,99187.34
2022-08-18T08:19:56.740Z,99195.66
2022-08-18T08:22:22.752Z,99168.53
2022-08-18T08:25:00.190Z,99190.38
2022-08-18T08:27:39.318Z,99197.16
2022-08-18T08:30:11.075Z,99192.84
2022-08-18T08:32:48.502Z,99195.50
2022-08-18T08:35:49.843Z,99188.69
2022-08-18T08:38:40.237Z,99184.38
2022-08-18T08:41:13.261Z,99179.00
2022-08-18T08:43:45.761Z,99174.69
2022-08-18T08:46:18.976Z,99174.28
2022-08-18T08:48:52.381Z,99172.63
2022-08-18T08:51:32.698Z,99168.16
2022-08-18T08:54:07.716Z,99169.31
2022-08-18T08:56:40.446Z,99173.53
2022-08-18T08:59:12.373Z,99167.56
2022-08-18T09:01:49.079Z,99175.28
2022-08-18T09:04:32.093Z,99162.34
2022-08-18T09:07:14.878Z,99167.97
2022-08-18T09:09:58.887Z,99157.69
2022-08-18T09:12:42.658Z,99148.13
2022-08-18T09:15:38.125Z,99141.88
2022-08-18T09:18:30.951Z,99128.44
2022-08-18T09:21:15.948Z,99128.03
2022-08-18T09:23:46.912Z,99127.16
2022-08-18T09:26:39.565Z,99114.84
2022-08-18T09:29:23.390Z,99106.59
2022-08-18T09:32:32.852Z,99117.84
2022-08-18T09:35:14.062Z,99112.78
2022-08-18T09:38:11.789Z,99114.34
2022-08-18T09:41:06.205Z,99109.38
2022-08-18T09:43:39.805Z,99105.03
2022-08-18T09:46:08.904Z,99103.47
2022-08-18T09:50:37.216Z,99100.16
2022-08-18T09:51:36.557Z,99084.53
2022-08-18T09:54:21.044Z,99082.44
2022-08-18T09:57:21.512Z,99078.84
2022-08-18T10:00:00.570Z,99068.25
2022-08-18T10:03:10.286Z,99059.69
2022-08-18T10:05:38.745Z,99050.13
2022-08-18T10:08:37.437Z,99053.28
2022-08-18T10:11:29.108Z,99063.59
2022-08-18T10:14:10.555Z,99060.84
2022-08-18T10:17:21.553Z,99061.41
2022-08-18T10:19:55.941Z,99054.19
2022-08-18T10:22:43.401Z,99049.78
2022-08-18T10:25:23.355Z,99047.03
2022-08-18T10:27:54.529Z,99052.19
2022-08-18T10:31:06.477Z,99048.59
2022-08-18T10:37:06.484Z,99048.94
2022-08-18T10:39:47.199Z,99053.84
2022-08-18T10:42:24.360Z,99057.06
2022-08-18T10:45:09.449Z,99049.97
2022-08-18T10:47:38.173Z,99048.94
2022-08-18T10:50:19.551Z,99048.47
2022-08-18T10:56:01.902Z,99036.75
2022-08-18T10:58:53.674Z,99032.84
2022-08-18T11:01:36.822Z,99036.69
2022-08-18T11:04:13.991Z,99027.22
2022-08-18T11:07:07.759Z,99029.59
2022-08-18T11:09:41.538Z,99031.91
2022-08-18T11:12:13.332Z,99024.56
2022-08-18T11:15:21.112Z,99020.69
2022-08-18T11:18:03.148Z,99012.53
2022-08-18T11:20:34.707Z,99012.13
2022-08-18T11:23:05.442Z,99015.44
2022-08-18T11:25:35.388Z,99005.69
2022-08-18T11:28:04.241Z,99006.91
2022-08-18T11:30:36.963Z,99002.69
2022-08-18T11:33:05.714Z,98998.56
2022-08-18T11:35:46.813Z,99000.22
2022-08-18T11:38:23.190Z,98991.31
2022-08-18T11:41:12.979Z,99000.22
2022-08-18T11:46:38.648Z,99007.25
2022-08-18T11:49:16.941Z,98998.19
2022-08-18T11:52:02.344Z,99002.41
2022-08-18T11:54:50.757Z,98993.00
2022-08-18T11:57:46.240Z,98981.22
2022-08-18T12:00:43.269Z,98978.69
2022-08-18T12:03:21.597Z,98985.53
2022-08-18T12:08:58.923Z,98981.91
2022-08-18T12:11:30.851Z,98987.66
2022-08-18T12:16:54.367Z,98983.41
2022-08-18T12:19:24.114Z,98975.94
2022-08-18T12:21:56.174Z,98978.19
2022-08-18T12:30:06.922Z,98984.44
2022-08-18T12:35:32.350Z,98975.19
2022-08-18T12:38:11.117Z,98975.78
2022-08-18T12:40:43.213Z,98964.47
2022-08-18T12:43:13.182Z,98970.84
2022-08-18T12:45:41.448Z,98986.19
2022-08-18T12:48:09.439Z,98988.84
2022-08-18T12:50:50.149Z,98992.25
2022-08-18T12:53:29.441Z,98983.19
2022-08-18T12:56:08.666Z,98987.41
2022-08-18T12:58:40.791Z,98979.44
2022-08-18T13:01:09.051Z,98992.59
2022-08-18T13:03:38.285Z,98993.78
2022-08-18T13:06:11.496Z,98986.47
2022-08-18T13:08:47.800Z,98971.47
2022-08-18T13:11:21.645Z,98970.63
2022-08-18T13:13:56.879Z,98966.97
2022-08-18T13:16:38.712Z,98958.13
2022-08-18T13:19:07.948Z,98960.66
2022-08-18T13:21:41.291Z,98958.84
2022-08-18T13:24:09.797Z,98961.63
2022-08-18T13:26:45.552Z,98957.00
2022-08-18T13:29:17.454Z,98947.09
2022-08-18T13:31:55.350Z,98952.47
2022-08-18T13:34:24.467Z,98957.63
2022-08-18T13:36:52.469Z,98934.28
2022-08-18T13:39:22.918Z,98943.72
2022-08-18T13:41:54.856Z,98940.06
2022-08-18T13:44:26.957Z,98941.38
2022-08-18T13:46:56.049Z,98938.69
2022-08-18T13:49:29.861Z,98947.78
2022-08-18T13:52:00.366Z,98942.88
2022-08-18T13:54:35.155Z,98948.66
2022-08-18T13:57:04.969Z,98933.88
2022-08-18T13:59:35.988Z,98934.19
2022-08-18T14:02:08.664Z,98938.56
2022-08-18T14:04:38.364Z,98939.66
2022-08-18T14:07:10.516Z,98936.91
2022-08-18T14:09:40.618Z,98939.88
2022-08-18T14:12:23.783Z,98937.19
2022-08-18T14:14:57.021Z,98940.19
2022-08-18T14:17:26.830Z,98945.66
2022-08-18T14:20:15.432Z,98940.16
2022-08-18T14:23:09.497Z,98951.09
2022-08-18T14:25:55.670Z,98947.78
2022-08-18T14:28:24.706Z,98949.38
2022-08-18T14:30:55.366Z,98956.31
2022-08-18T14:33:29.186Z,98950.00
2022-08-18T14:36:14.784Z,98952.47
2022-08-18T14:38:43.376Z,98944.94
2022-08-18T14:41:13.924Z,98950.88
2022-08-18T14:44:10.910Z,98952.13
2022-08-18T14:46:34.747Z,98958.66
2022-08-18T14:49:03.877Z,98954.88
2022-08-18T14:51:33.394Z,98956.94
2022-08-18T14:54:02.122Z,98955.16
2022-08-18T14:56:37.755Z,98961.31
2022-08-18T14:59:07.647Z,98955.56
2022-08-18T15:01:42.629Z,98951.16
2022-08-18T15:04:19.055Z,98943.06
2022-08-18T15:06:55.666Z,98943.47
2022-08-18T15:09:27.143Z,98940.50
2022-08-18T15:11:56.754Z,98942.44
2022-08-18T15:14:33.082Z,98946.25
2022-08-18T15:17:11.586Z,98942.78
2022-08-18T15:19:59.150Z,98936.41
2022-08-18T15:22:45.811Z,98938.88
2022-08-18T15:25:33.666Z,98959.19
2022-08-18T15:28:01.704Z,98951.88
2022-08-18T15:30:29.999Z,98948.88
2022-08-18T15:33:03.451Z,98949.84
2022-08-18T15:35:31.953Z,98959.13
2022-08-18T15:38:05.037Z,98958.63
2022-08-18T15:40:41.172Z,98941.06
2022-08-18T15:43:10.429Z,98944.47
2022-08-18T15:45:56.130Z,98947.81
2022-08-18T15:48:29.585Z,98929.78
2022-08-18T15:50:57.752Z,98937.06
2022-08-18T15:53:44.744Z,98943.94
2022-08-18T15:56:15.533Z,98934.09
2022-08-18T15:58:44.565Z,98932.22
2022-08-18T16:01:30.518Z,98935.00
2022-08-18T16:04:04.084Z,98937.41
2022-08-18T16:06:33.337Z,98930.03
2022-08-18T16:09:04.847Z,98932.38
2022-08-18T16:11:32.849Z,98926.09
2022-08-18T16:14:00.838Z,98929.25
2022-08-18T16:16:36.093Z,98930.50
2022-08-18T16:19:07.900Z,98938.75
2022-08-18T16:21:39.882Z,98940.66
2022-08-18T16:24:09.277Z,98932.47
2022-08-18T16:26:37.590Z,98928.91
2022-08-18T16:29:05.458Z,98923.47
2022-08-18T16:31:33.679Z,98920.19
2022-08-18T16:34:01.610Z,98924.03
2022-08-18T16:36:31.087Z,98920.72
2022-08-18T16:38:59.012Z,98928.19
2022-08-18T16:41:27.663Z,98924.84
2022-08-18T16:43:56.323Z,98924.22
2022-08-18T16:46:27.177Z,98928.59
2022-08-18T16:48:56.028Z,98928.34
2022-08-18T16:51:26.597Z,98927.88
2022-08-18T16:53:56.304Z,98929.91
2022-08-18T16:56:34.637Z,98922.69
2022-08-18T16:59:20.334Z,98920.50
2022-08-18T17:02:05.721Z,98911.47
2022-08-18T17:04:34.476Z,98912.56
2022-08-18T17:07:04.453Z,98902.22
2022-08-18T17:09:35.313Z,98894.72
2022-08-18T17:12:03.506Z,98880.34
2022-08-18T17:14:32.392Z,98900.41
2022-08-18T17:17:01.303Z,98901.59
2022-08-18T17:19:31.645Z,98904.94
2022-08-18T17:21:59.619Z,98890.03
2022-08-18T17:24:31.693Z,98879.03
2022-08-18T17:27:12.277Z,98885.53
2022-08-18T17:30:03.341Z,98882.91
2022-08-18T17:35:14.772Z,98882.59
2022-08-18T17:37:49.376Z,98880.81
2022-08-18T17:40:22.212Z,98866.22
2022-08-18T17:42:53.457Z,98875.13
2022-08-18T17:45:22.524Z,98871.34
2022-08-18T17:48:01.088Z,98874.63
2022-08-18T17:51:04.443Z,98879.34
2022-08-18T17:53:33.513Z,98875.66
2022-08-18T17:56:07.707Z,98875.31
2022-08-18T17:58:40.617Z,98880.06
2022-08-18T18:01:09.233Z,98882.25
2022-08-18T18:03:38.035Z,98891.28
2022-08-18T18:06:12.077Z,98885.72
2022-08-18T18:08:52.235Z,98885.56
2022-08-18T18:11:26.773Z,98889.47
2022-08-18T18:13:56.101Z,98892.97
2022-08-18T18:16:34.885Z,98895.88
2022-08-18T18:19:06.078Z,98886.81
2022-08-18T18:22:00.372Z,98874.81
2022-08-18T18:24:31.404Z,98877.94
2022-08-18T18:26:59.350Z,98894.25
2022-08-18T18:29:35.610Z,98900.66
2022-08-18T18:32:24.209Z,98905.44
2022-08-18T18:35:08.833Z,98909.34
2022-08-18T18:37:47.102Z,98909.53
2022-08-18T18:40:31.802Z,98904.59
2022-08-18T18:43:21.068Z,98911.63
2022-08-18T18:46:17.890Z,98898.00
2022-08-18T18:48:55.348Z,98893.94
2022-08-18T18:51:39.754Z,98894.97
2022-08-18T18:54:18.353Z,98894.97
2022-08-18T18:56:51.527Z,98892.38
2022-08-18T18:59:35.642Z,98869.78
2022-08-18T19:02:34.770Z,98881.63
2022-08-18T19:05:19.819Z,98876.81
2022-08-18T19:08:02.165Z,98872.97
2022-08-18T19:10:36.062Z,98866.88
2022-08-18T19:13:10.520Z,98851.50
2022-08-18T19:15:41.445Z,98858.31
2022-08-18T19:18:26.063Z,98855.03
2022-08-18T19:22:02.396Z,98821.50
2022-08-18T19:23:51.908Z,98836.44
2022-08-18T19:26:27.101Z,98827.97
2022-08-18T19:29:01.157Z,98833.38
2022-08-18T19:31:45.698Z,98835.22
2022-08-18T19:34:19.644Z,98831.91
2022-08-18T19:36:55.405Z,98848.41
2022-08-18T19:39:32.418Z,98845.09
2022-08-18T19:42:06.641Z,98835.31
2022-08-18T19:44:38.893Z,98840.41
2022-08-18T19:47:14.096Z,98838.53
2022-08-18T19:49:56.368Z,98835.09
2022-08-18T19:52:45.930Z,98840.25
2022-08-18T19:55:32.889Z,98841.03
2022-08-18T19:58:20.441Z,98838.16
2022-08-18T20:00:56.241Z,98841.44
2022-08-18T20:03:36.526Z,98837.78
2022-08-18T20:06:36.066Z,98826.28
2022-08-18T20:09:25.225Z,98824.53
2022-08-18T20:12:08.788Z,98829.69
2022-08-18T20:14:40.082Z,98835.25
2022-08-18T20:17:16.678Z,98839.66
2022-08-18T20:20:12.801Z,98839.50
2022-08-18T20:22:44.288Z,98831.53
2022-08-18T20:25:40.826Z,98833.31
2022-08-18T20:28:34.515Z,98839.28
2022-08-18T20:31:12.497Z,98842.97
2022-08-18T20:33:46.185Z,98838.72
2022-08-18T20:36:36.906Z,98846.41
2022-08-18T20:39:41.110Z,98844.84
2022-08-18T20:42:30.966Z,98857.63
2022-08-18T20:45:00.127Z,98851.28
2022-08-18T20:48:03.625Z,98859.28
2022-08-18T20:50:59.316Z,98860.69
2022-08-18T20:53:58.798Z,98863.97
2022-08-18T20:56:43.792Z,98858.56
2022-08-18T20:59:20.132Z,98872.31
2022-08-18T21:01:56.431Z,98877.56
2022-08-18T21:04:36.725Z,98890.25
2022-08-18T21:07:11.909Z,98870.19
2022-08-18T21:09:41.152Z,98879.44
2022-08-18T21:12:14.538Z,98884.50
2022-08-18T21:14:42.868Z,98872.47
2022-08-18T21:17:15.392Z,98884.50
2022-08-18T21:19:43.443Z,98883.78
2022-08-18T21:22:12.247Z,98875.91
2022-08-18T21:24:43.174Z,98889.25
2022-08-18T21:27:22.765Z,98896.13
2022-08-18T21:29:51.745Z,98910.59
2022-08-18T21:32:22.848Z,98906.97
2022-08-18T21:34:51.644Z,98925.13
2022-08-18T21:37:20.437Z,98923.81
2022-08-18T21:39:51.051Z,98937.25
2022-08-18T21:42:26.921Z,98932.19
2022-08-18T21:45:00.511Z,98939.84
2022-08-18T21:47:31.563Z,98934.59
2022-08-18T21:50:02.736Z,98937.16
2022-08-18T21:52:31.941Z,98934.69
2022-08-18T21:55:04.222Z,98928.88
2022-08-18T21:58:02.343Z,98948.38
2022-08-18T22:00:34.351Z,98937.78
2022-08-18T22:03:16.957Z,98934.03
2022-08-18T22:05:58.804Z,98939.75
2022-08-18T22:08:31.023Z,98937.34
2022-08-18T22:11:36.391Z,98948.03
2022-08-18T22:14:27.244Z,98948.63
2022-08-18T22:17:33.027Z,98956.28
2022-08-18T22:20:34.212Z,98960.41
2022-08-18T22:23:24.388Z,98963.81
2022-08-18T22:25:52.428Z,98966.66
2022-08-18T22:28:27.290Z,98962.25
2022-08-18T22:30:55.518Z,98970.81
2022-08-18T22:33:24.838Z,98975.88
2022-08-18T22:35:55.149Z,98980.94
2022-08-18T22:38:23.184Z,98982.78
2022-08-18T22:40:51.260Z,98975.03
2022-08-18T22:43:19.424Z,98969.72
2022-08-18T22:45:49.989Z,98971.56
2022-08-18T22:48:19.620Z,98969.88
2022-08-18T22:50:49.579Z,98964.72
2022-08-18T22:53:19.322Z,98968.22
2022-08-18T22:55:53.736Z,98968.41
2022-08-18T22:58:28.175Z,98962.53
2022-08-18T23:01:01.225Z,98963.47
2022-08-18T23:03:34.566Z,98962.66
2022-08-18T23:06:11.613Z,98951.53
2022-08-18T23:08:55.397Z,98965.31
2022-08-18T23:11:25.565Z,98959.44
2022-08-18T23:13:53.997Z,98968.19
2022-08-18T23:16:31.340Z,98958.69
2022-08-18T23:19:01.993Z,98964.03
2022-08-18T23:21:34.946Z,98960.78
2022-08-18T23:24:05.089Z,98956.56
2022-08-18T23:26:34.495Z,98973.03
2022-08-18T23:29:02.550Z,98971.56
2022-08-18T23:31:32.540Z,98978.38
2022-08-18T23:34:02.621Z,98984.53
2022-08-18T23:36:33.040Z,98987.22
2022-08-18T23:39:01.664Z,98983.91
2022-08-18T23:41:29.574Z,98986.66
2022-08-18T23:43:57.636Z,98976.34
2022-08-18T23:46:28.514Z,98985.00
2022-08-18T23:48:59.637Z,98986.09
2022-08-18T23:51:31.110Z,98998.06
2022-08-18T23:54:05.018Z,98993.81
2022-08-18T23:56:34.249Z,98983.63
2022-08-18T23:59:02.985Z,98996.56
